Delphis Gdansk — VRQJ5 — position and weather

sailwx.info

Track history (hours):
 
Tides and Currents Weather Stations Pressure Air Temp Water Temp Dewpoint Dewpoint Depression Visibility Wind Speed Wind Dir Waves Ship Positions

Delphis Gdansk

Last reported at 2018-Jan-20 02:28 UTC. Time now 2018-Jan-20 02:43 UTC.
Position N 51°57' E 004°05'.

Length 178 m; draft 8.5 m.

Type: Cargo ship. MMSI: 477850500.

Date/timePositionNaut miles runAvg speedWind from/ knotsBaromVisibWave heightAir tempDewpointWater temp
2018-Jan-20 02:28N 51°57' E 004°05'0 0.0
2018-Jan-20 01:58N 51°57' E 004°05'0 0.0
2018-Jan-20 01:28N 51°57' E 004°05'0 0.0
2018-Jan-20 00:58N 51°57' E 004°05'0 0.0
2018-Jan-20 00:28N 51°57' E 004°05'0 0.0
2018-Jan-19 23:58N 51°57' E 004°05'0 0.8
2018-Jan-19 23:30N 51°58' E 004°04'3 5.2
2018-Jan-19 23:00N 51°57' E 003°60'0 0.4
2018-Jan-19 22:29N 51°57' E 003°60'0 0.0
2018-Jan-19 21:56N 51°57' E 003°60'0 0.0
2018-Jan-19 21:29N 51°57' E 003°60'0 0.0
2018-Jan-19 20:56N 51°57' E 003°60'0 0.0
2018-Jan-19 20:29N 51°57' E 003°60'0 0.0
2018-Jan-19 19:59N 51°57' E 003°60'0 0.0
2018-Jan-19 19:29N 51°57' E 003°60'0 0.0
2018-Jan-19 18:59N 51°57' E 003°60'0 0.0
2018-Jan-19 18:29N 51°57' E 003°60'0 0.0
2018-Jan-19 17:56N 51°57' E 003°60'0 0.0
2018-Jan-19 17:29N 51°57' E 003°60'0 0.0
2018-Jan-19 16:59N 51°57' E 003°60'0 0.0
2018-Jan-19 16:26N 51°57' E 003°60'0 0.0
2018-Jan-19 15:59N 51°57' E 003°60'0 0.0
2018-Jan-19 15:29N 51°57' E 003°60'0 0.0
2018-Jan-19 14:59N 51°57' E 003°60'0 0.0
2018-Jan-19 14:29N 51°57' E 003°60'0 0.0
2018-Jan-19 13:59N 51°57' E 003°60'0 0.0
2018-Jan-19 13:29N 51°57' E 003°60'0 0.0
2018-Jan-19 12:56N 51°57' E 003°60'1 1.5
2018-Jan-19 12:30N 51°58' E 003°60'3 5.7
2018-Jan-19 12:00N 51°59' E 004°04'713.7
2018-Jan-19 11:30N 52°01' E 003°54'4 7.5
2018-Jan-19 11:00N 51°59' E 003°48'4 7.5
2018-Jan-19 10:30N 52°03' E 003°46'4 7.1
2018-Jan-19 10:00N 52°06' E 003°45'3 6.3
2018-Jan-19 09:30N 52°09' E 003°43'0 0.1
2018-Jan-19 08:59N 52°09' E 003°43'0 0.0
2018-Jan-19 08:29N 52°09' E 003°43'0 0.0
2018-Jan-19 07:59N 52°09' E 003°43'0 0.1
2018-Jan-19 07:29N 52°09' E 003°43'0 0.0
2018-Jan-19 06:59N 52°09' E 003°43'0 0.0
2018-Jan-19 06:29N 52°09' E 003°43'0 0.1
2018-Jan-19 05:59N 52°09' E 003°43'0 0.0
2018-Jan-19 05:29N 52°09' E 003°43'0 0.0
2018-Jan-19 04:59N 52°09' E 003°43'0 0.0
2018-Jan-19 04:29N 52°09' E 003°43'0 0.0
2018-Jan-19 03:59N 52°09' E 003°43'0 0.0
2018-Jan-19 03:23N 52°09' E 003°43'0 0.0
2018-Jan-19 02:59N 52°09' E 003°43'0 0.1
2018-Jan-19 02:29N 52°09' E 003°43'0 0.1
2018-Jan-19 01:59N 52°09' E 003°43'0 0.1
2018-Jan-19 01:26N 52°09' E 003°43'0 0.1
2018-Jan-19 00:59N 52°09' E 003°43'0 0.0
2018-Jan-19 00:26N 52°09' E 003°43'0 0.0
2018-Jan-18 23:59N 52°09' E 003°43'0 0.1
2018-Jan-18 23:29N 52°09' E 003°42'0 0.1
2018-Jan-18 22:59N 52°09' E 003°42'0 0.0
2018-Jan-18 21:56N 52°09' E 003°42'0 0.0
2018-Jan-18 20:57N 52°09' E 003°42'0 0.6
2018-Jan-18 20:30N 52°09' E 003°43'510.7
2018-Jan-18 20:00N 52°14' E 003°46'713.2
2018-Jan-18 19:30N 52°20' E 003°48'611.9
2018-Jan-18 19:00N 52°26' E 003°50'611.4
2018-Jan-18 18:30N 52°32' E 003°52'610.9
2018-Jan-18 17:59N 52°37' E 003°54'510.6
2018-Jan-18 17:29N 52°42' E 003°55'28 4.4
2018-Jan-18 11:03N 53°08' E 004°17'1 2.7
2018-Jan-18 10:45N 53°08' E 004°19'1 2.6
2018-Jan-18 10:23N 53°08' E 004°20'1 1.4
2018-Jan-18 10:00N 53°08' E 004°21'1 2.4
2018-Jan-18 09:30N 53°08' E 004°23'1 2.3
2018-Jan-18 09:00N 53°09' E 004°23'2 4.3
2018-Jan-18 08:30N 53°11' E 004°25'11 6.2
2018-Jan-18 06:40N 53°22' E 004°33'1 7.7
2018-Jan-18 06:30N 53°23' E 004°34'4 7.6
2018-Jan-18 05:59N 53°26' E 004°36'3 6.4
2018-Jan-18 05:30N 53°29' E 004°40'4 7.3
2018-Jan-18 05:00N 53°30' E 004°45'4 7.3
2018-Jan-18 04:30N 53°31' E 004°51'3 6.9
2018-Jan-18 04:00N 53°33' E 004°56'3 7.0
2018-Jan-18 03:30N 53°34' E 005°02'4 7.8
2018-Jan-18 03:00N 53°35' E 005°08'4 8.2
2018-Jan-18 02:30N 53°37' E 005°15'6 8.2
2018-Jan-18 01:45N 53°39' E 005°24'2 8.1
2018-Jan-18 01:28N 53°39' E 005°28'4 7.9
2018-Jan-18 01:00N 53°41' E 005°34'  
2018-Jan-12 15:00N 59°53' E 030°11'0 0.2
2018-Jan-12 14:30N 59°53' E 030°11'3 5.8
2018-Jan-12 14:00N 59°54' E 030°06'510.1
2018-Jan-12 13:30N 59°56' E 029°57'611.1
2018-Jan-12 13:00N 59°58' E 029°47'1 2.3
2018-Jan-12 12:30N 59°59' E 029°44'3 5.7
2018-Jan-12 12:00N 59°56' E 029°42'0 0.0
2018-Jan-12 11:30N 59°56' E 029°42'0 0.0
2018-Jan-12 11:00N 59°56' E 029°42'0 0.0
2018-Jan-12 10:30N 59°56' E 029°42'0 0.0
2018-Jan-12 10:00N 59°56' E 029°42'0 0.0
2018-Jan-12 09:30N 59°56' E 029°42'0 0.0
2018-Jan-12 08:57N 59°56' E 029°42'0 0.0
2018-Jan-12 08:30N 59°56' E 029°42'0 0.0
2018-Jan-12 08:00N 59°56' E 029°42'0 0.0
2018-Jan-12 07:30N 59°56' E 029°42'0 0.0
2018-Jan-12 06:57N 59°56' E 029°42'0 0.0
2018-Jan-12 06:30N 59°56' E 029°42'0 0.0
2018-Jan-12 06:00N 59°56' E 029°42'0 0.0
2018-Jan-12 05:30N 59°56' E 029°42'0 0.0
2018-Jan-12 05:00N 59°56' E 029°42'0 0.0
2018-Jan-12 04:30N 59°56' E 029°42'0 0.0
2018-Jan-12 04:00N 59°56' E 029°42'0 0.0
2018-Jan-12 03:27N 59°56' E 029°42'0 0.0
2018-Jan-12 03:00N 59°56' E 029°42'0 0.0
2018-Jan-12 02:27N 59°56' E 029°42'0 0.0
2018-Jan-12 02:01N 59°56' E 029°42'0 0.0
2018-Jan-12 01:31N 59°56' E 029°42'1 2.3
2018-Jan-12 01:00N 59°57' E 029°44'4 7.4
2018-Jan-12 00:30N 59°60' E 029°39'611.4
2018-Jan-12 00:01N 60°01' E 029°28'611.6
2018-Jan-11 23:30N 60°02' E 029°17'611.3
2018-Jan-11 23:00N 60°02' E 029°06'713.8
2018-Jan-11 22:30N 60°02' E 028°52'714.4
2018-Jan-11 22:00N 60°02' E 028°37'713.9
2018-Jan-11 21:30N 60°04' E 028°24'713.7
2018-Jan-11 21:00N 60°08' E 028°12'714.2
2018-Jan-11 20:30N 60°09' E 027°58'713.6
2018-Jan-11 20:00N 60°10' E 027°44'714.4
2018-Jan-11 19:30N 60°07' E 027°32'815.3
2018-Jan-11 19:00N 60°03' E 027°19'713.3
2018-Jan-11 18:29N 59°59' E 027°07'613.3
2018-Jan-11 18:00N 59°59' E 026°54'714.1
2018-Jan-11 17:30N 59°60' E 026°40'714.1
2018-Jan-11 17:00N 59°58' E 026°27'814.3
2018-Jan-11 16:27N 59°56' E 026°11'814.3
2018-Jan-11 15:53N 59°53' E 025°56'814.2
2018-Jan-11 15:18N 59°51' E 025°40'414.4
2018-Jan-11 15:00N 59°51' E 025°32'714.2
2018-Jan-11 14:30N 59°49' E 025°18'714.1
2018-Jan-11 14:00N 59°48' E 025°04'714.0
2018-Jan-11 13:31N 59°47' E 024°51'815.3
2018-Jan-11 13:00N 59°45' E 024°36'714.4
2018-Jan-11 12:31N 59°43' E 024°22'714.9
2018-Jan-11 12:00N 59°41' E 024°08'815.1
2018-Jan-11 11:30N 59°39' E 023°54'815.5
2018-Jan-11 11:00N 59°36' E 023°39'815.5
2018-Jan-11 10:30N 59°34' E 023°24'815.6
2018-Jan-11 10:00N 59°31' E 023°10'815.8
2018-Jan-11 09:30N 59°29' E 022°55'3615.6
2018-Jan-11 07:12N 59°09' E 021°56'10616.5
2018-Jan-11 00:47N 57°46' E 019°51'516.7
2018-Jan-11 00:28N 57°42' E 019°44'1816.5
2018-Jan-10 23:21N 57°27' E 019°24'2816.4
2018-Jan-10 21:40N 57°05' E 018°53'8716.4
2018-Jan-10 16:19N 56°07' E 016°54'516.5
2018-Jan-10 16:00N 56°04' E 016°47'816.6
2018-Jan-10 15:30N 55°59' E 016°34'816.3
2018-Jan-10 15:00N 55°55' E 016°22'816.4
2018-Jan-10 14:30N 55°51' E 016°10'816.5
2018-Jan-10 14:00N 55°47' E 015°57'816.6
2018-Jan-10 13:30N 55°42' E 015°45'816.6
2018-Jan-10 13:00N 55°38' E 015°32'816.6
2018-Jan-10 12:30N 55°35' E 015°18'816.4
2018-Jan-10 12:00N 55°31' E 015°06'816.3
2018-Jan-10 11:30N 55°28' E 014°52'816.0
2018-Jan-10 11:01N 55°24' E 014°40'916.6
2018-Jan-10 10:30N 55°17' E 014°31'816.8
2018-Jan-10 10:01N 55°11' E 014°22'816.8
2018-Jan-10 09:30N 55°05' E 014°13'916.0
2018-Jan-10 08:57N 54°60' E 013°60'5015.6
2018-Jan-10 05:46N 54°43' E 012°38'414.5
2018-Jan-10 05:30N 54°41' E 012°33'814.5
2018-Jan-10 04:58N 54°36' E 012°22'714.2
2018-Jan-10 04:30N 54°31' E 012°15'714.4
2018-Jan-10 04:00N 54°25' E 012°09'714.7
2018-Jan-10 03:30N 54°25' E 011°57'815.3
2018-Jan-10 03:00N 54°25' E 011°44'714.9
2018-Jan-10 02:30N 54°28' E 011°32'  
Track history (hours):
 
Tides and Currents Weather Stations Pressure Air Temp Water Temp Dewpoint Dewpoint Depression Visibility Wind Speed Wind Dir Waves Ship Positions

Delphis Gdansk

Last reported at 2018-Jan-20 02:28 UTC. Time now 2018-Jan-20 02:43 UTC.
Position N 51°57' E 004°05'.

Length 178 m; draft 8.5 m.

Type: Cargo ship. MMSI: 477850500.

Date/timePositionNaut miles runAvg speedWind from/ knotsBaromVisibWave heightAir tempDewpointWater temp
2018-Jan-20 02:28N 51°57' E 004°05'0 0.0
2018-Jan-20 01:58N 51°57' E 004°05'0 0.0
2018-Jan-20 01:28N 51°57' E 004°05'0 0.0
2018-Jan-20 00:58N 51°57' E 004°05'0 0.0
2018-Jan-20 00:28N 51°57' E 004°05'0 0.0
2018-Jan-19 23:58N 51°57' E 004°05'0 0.8
2018-Jan-19 23:30N 51°58' E 004°04'3 5.2
2018-Jan-19 23:00N 51°57' E 003°60'0 0.4
2018-Jan-19 22:29N 51°57' E 003°60'0 0.0
2018-Jan-19 21:56N 51°57' E 003°60'0 0.0
2018-Jan-19 21:29N 51°57' E 003°60'0 0.0
2018-Jan-19 20:56N 51°57' E 003°60'0 0.0
2018-Jan-19 20:29N 51°57' E 003°60'0 0.0
2018-Jan-19 19:59N 51°57' E 003°60'0 0.0
2018-Jan-19 19:29N 51°57' E 003°60'0 0.0
2018-Jan-19 18:59N 51°57' E 003°60'0 0.0
2018-Jan-19 18:29N 51°57' E 003°60'0 0.0
2018-Jan-19 17:56N 51°57' E 003°60'0 0.0
2018-Jan-19 17:29N 51°57' E 003°60'0 0.0
2018-Jan-19 16:59N 51°57' E 003°60'0 0.0
2018-Jan-19 16:26N 51°57' E 003°60'0 0.0
2018-Jan-19 15:59N 51°57' E 003°60'0 0.0
2018-Jan-19 15:29N 51°57' E 003°60'0 0.0
2018-Jan-19 14:59N 51°57' E 003°60'0 0.0
2018-Jan-19 14:29N 51°57' E 003°60'0 0.0
2018-Jan-19 13:59N 51°57' E 003°60'0 0.0
2018-Jan-19 13:29N 51°57' E 003°60'0 0.0
2018-Jan-19 12:56N 51°57' E 003°60'1 1.5
2018-Jan-19 12:30N 51°58' E 003°60'3 5.7
2018-Jan-19 12:00N 51°59' E 004°04'713.7
2018-Jan-19 11:30N 52°01' E 003°54'4 7.5
2018-Jan-19 11:00N 51°59' E 003°48'4 7.5
2018-Jan-19 10:30N 52°03' E 003°46'4 7.1
2018-Jan-19 10:00N 52°06' E 003°45'3 6.3
2018-Jan-19 09:30N 52°09' E 003°43'0 0.1
2018-Jan-19 08:59N 52°09' E 003°43'0 0.0
2018-Jan-19 08:29N 52°09' E 003°43'0 0.0
2018-Jan-19 07:59N 52°09' E 003°43'0 0.1
2018-Jan-19 07:29N 52°09' E 003°43'0 0.0
2018-Jan-19 06:59N 52°09' E 003°43'0 0.0
2018-Jan-19 06:29N 52°09' E 003°43'0 0.1
2018-Jan-19 05:59N 52°09' E 003°43'0 0.0
2018-Jan-19 05:29N 52°09' E 003°43'0 0.0
2018-Jan-19 04:59N 52°09' E 003°43'0 0.0
2018-Jan-19 04:29N 52°09' E 003°43'0 0.0
2018-Jan-19 03:59N 52°09' E 003°43'0 0.0
2018-Jan-19 03:23N 52°09' E 003°43'0 0.0
2018-Jan-19 02:59N 52°09' E 003°43'0 0.1
2018-Jan-19 02:29N 52°09' E 003°43'0 0.1
2018-Jan-19 01:59N 52°09' E 003°43'0 0.1
2018-Jan-19 01:26N 52°09' E 003°43'0 0.1
2018-Jan-19 00:59N 52°09' E 003°43'0 0.0
2018-Jan-19 00:26N 52°09' E 003°43'0 0.0
2018-Jan-18 23:59N 52°09' E 003°43'0 0.1
2018-Jan-18 23:29N 52°09' E 003°42'0 0.1
2018-Jan-18 22:59N 52°09' E 003°42'0 0.0
2018-Jan-18 21:56N 52°09' E 003°42'0 0.0
2018-Jan-18 20:57N 52°09' E 003°42'0 0.6
2018-Jan-18 20:30N 52°09' E 003°43'510.7
2018-Jan-18 20:00N 52°14' E 003°46'713.2
2018-Jan-18 19:30N 52°20' E 003°48'611.9
2018-Jan-18 19:00N 52°26' E 003°50'611.4
2018-Jan-18 18:30N 52°32' E 003°52'610.9
2018-Jan-18 17:59N 52°37' E 003°54'510.6
2018-Jan-18 17:29N 52°42' E 003°55'28 4.4
2018-Jan-18 11:03N 53°08' E 004°17'1 2.7
2018-Jan-18 10:45N 53°08' E 004°19'1 2.6
2018-Jan-18 10:23N 53°08' E 004°20'1 1.4
2018-Jan-18 10:00N 53°08' E 004°21'1 2.4
2018-Jan-18 09:30N 53°08' E 004°23'1 2.3
2018-Jan-18 09:00N 53°09' E 004°23'2 4.3
2018-Jan-18 08:30N 53°11' E 004°25'11 6.2
2018-Jan-18 06:40N 53°22' E 004°33'1 7.7
2018-Jan-18 06:30N 53°23' E 004°34'4 7.6
2018-Jan-18 05:59N 53°26' E 004°36'3 6.4
2018-Jan-18 05:30N 53°29' E 004°40'4 7.3
2018-Jan-18 05:00N 53°30' E 004°45'4 7.3
2018-Jan-18 04:30N 53°31' E 004°51'3 6.9
2018-Jan-18 04:00N 53°33' E 004°56'3 7.0
2018-Jan-18 03:30N 53°34' E 005°02'4 7.8
2018-Jan-18 03:00N 53°35' E 005°08'4 8.2
2018-Jan-18 02:30N 53°37' E 005°15'6 8.2
2018-Jan-18 01:45N 53°39' E 005°24'2 8.1
2018-Jan-18 01:28N 53°39' E 005°28'4 7.9
2018-Jan-18 01:00N 53°41' E 005°34'  
2018-Jan-12 15:00N 59°53' E 030°11'0 0.2
2018-Jan-12 14:30N 59°53' E 030°11'3 5.8
2018-Jan-12 14:00N 59°54' E 030°06'510.1
2018-Jan-12 13:30N 59°56' E 029°57'611.1
2018-Jan-12 13:00N 59°58' E 029°47'1 2.3
2018-Jan-12 12:30N 59°59' E 029°44'3 5.7
2018-Jan-12 12:00N 59°56' E 029°42'0 0.0
2018-Jan-12 11:30N 59°56' E 029°42'0 0.0
2018-Jan-12 11:00N 59°56' E 029°42'0 0.0
2018-Jan-12 10:30N 59°56' E 029°42'0 0.0
2018-Jan-12 10:00N 59°56' E 029°42'0 0.0
2018-Jan-12 09:30N 59°56' E 029°42'0 0.0
2018-Jan-12 08:57N 59°56' E 029°42'0 0.0
2018-Jan-12 08:30N 59°56' E 029°42'0 0.0
2018-Jan-12 08:00N 59°56' E 029°42'0 0.0
2018-Jan-12 07:30N 59°56' E 029°42'0 0.0
2018-Jan-12 06:57N 59°56' E 029°42'0 0.0
2018-Jan-12 06:30N 59°56' E 029°42'0 0.0
2018-Jan-12 06:00N 59°56' E 029°42'0 0.0
2018-Jan-12 05:30N 59°56' E 029°42'0 0.0
2018-Jan-12 05:00N 59°56' E 029°42'0 0.0
2018-Jan-12 04:30N 59°56' E 029°42'0 0.0
2018-Jan-12 04:00N 59°56' E 029°42'0 0.0
2018-Jan-12 03:27N 59°56' E 029°42'0 0.0
2018-Jan-12 03:00N 59°56' E 029°42'0 0.0
2018-Jan-12 02:27N 59°56' E 029°42'0 0.0
2018-Jan-12 02:01N 59°56' E 029°42'0 0.0
2018-Jan-12 01:31N 59°56' E 029°42'1 2.3
2018-Jan-12 01:00N 59°57' E 029°44'4 7.4
2018-Jan-12 00:30N 59°60' E 029°39'611.4
2018-Jan-12 00:01N 60°01' E 029°28'611.6
2018-Jan-11 23:30N 60°02' E 029°17'611.3
2018-Jan-11 23:00N 60°02' E 029°06'713.8
2018-Jan-11 22:30N 60°02' E 028°52'714.4
2018-Jan-11 22:00N 60°02' E 028°37'713.9
2018-Jan-11 21:30N 60°04' E 028°24'713.7
2018-Jan-11 21:00N 60°08' E 028°12'714.2
2018-Jan-11 20:30N 60°09' E 027°58'713.6
2018-Jan-11 20:00N 60°10' E 027°44'714.4
2018-Jan-11 19:30N 60°07' E 027°32'815.3
2018-Jan-11 19:00N 60°03' E 027°19'713.3
2018-Jan-11 18:29N 59°59' E 027°07'613.3
2018-Jan-11 18:00N 59°59' E 026°54'714.1
2018-Jan-11 17:30N 59°60' E 026°40'714.1
2018-Jan-11 17:00N 59°58' E 026°27'814.3
2018-Jan-11 16:27N 59°56' E 026°11'814.3
2018-Jan-11 15:53N 59°53' E 025°56'814.2
2018-Jan-11 15:18N 59°51' E 025°40'414.4
2018-Jan-11 15:00N 59°51' E 025°32'714.2
2018-Jan-11 14:30N 59°49' E 025°18'714.1
2018-Jan-11 14:00N 59°48' E 025°04'714.0
2018-Jan-11 13:31N 59°47' E 024°51'815.3
2018-Jan-11 13:00N 59°45' E 024°36'714.4
2018-Jan-11 12:31N 59°43' E 024°22'714.9
2018-Jan-11 12:00N 59°41' E 024°08'815.1
2018-Jan-11 11:30N 59°39' E 023°54'815.5
2018-Jan-11 11:00N 59°36' E 023°39'815.5
2018-Jan-11 10:30N 59°34' E 023°24'815.6
2018-Jan-11 10:00N 59°31' E 023°10'815.8
2018-Jan-11 09:30N 59°29' E 022°55'3615.6
2018-Jan-11 07:12N 59°09' E 021°56'10616.5
2018-Jan-11 00:47N 57°46' E 019°51'516.7
2018-Jan-11 00:28N 57°42' E 019°44'1816.5
2018-Jan-10 23:21N 57°27' E 019°24'2816.4
2018-Jan-10 21:40N 57°05' E 018°53'8716.4
2018-Jan-10 16:19N 56°07' E 016°54'516.5
2018-Jan-10 16:00N 56°04' E 016°47'816.6
2018-Jan-10 15:30N 55°59' E 016°34'816.3
2018-Jan-10 15:00N 55°55' E 016°22'816.4
2018-Jan-10 14:30N 55°51' E 016°10'816.5
2018-Jan-10 14:00N 55°47' E 015°57'816.6
2018-Jan-10 13:30N 55°42' E 015°45'816.6
2018-Jan-10 13:00N 55°38' E 015°32'816.6
2018-Jan-10 12:30N 55°35' E 015°18'816.4
2018-Jan-10 12:00N 55°31' E 015°06'816.3
2018-Jan-10 11:30N 55°28' E 014°52'816.0
2018-Jan-10 11:01N 55°24' E 014°40'916.6
2018-Jan-10 10:30N 55°17' E 014°31'816.8
2018-Jan-10 10:01N 55°11' E 014°22'816.8
2018-Jan-10 09:30N 55°05' E 014°13'916.0
2018-Jan-10 08:57N 54°60' E 013°60'5015.6
2018-Jan-10 05:46N 54°43' E 012°38'414.5
2018-Jan-10 05:30N 54°41' E 012°33'814.5
2018-Jan-10 04:58N 54°36' E 012°22'714.2
2018-Jan-10 04:30N 54°31' E 012°15'714.4
2018-Jan-10 04:00N 54°25' E 012°09'714.7
2018-Jan-10 03:30N 54°25' E 011°57'815.3
2018-Jan-10 03:00N 54°25' E 011°44'714.9
2018-Jan-10 02:30N 54°28' E 011°32'  

Dump ship's entire track history